Zum Inhalt springen

Airport Weather

EDAZ 060156Z AUTO 29004KT 9999 ///073/// 14/09 Q1021 RMK TL60 WND2/29005KT=

Date Sunrise LT
05.07.2022 04:51 21:32
06.07.2022 04:52 21:31
07.07.2022 04:53 21:30
08.07.2022 04:54 21:30
09.07.2022 04:55 21:29
10.07.2022 04:56 21:28
11.07.2022 04:57 21:27
12.07.2022 04:58 21:27
13.07.2022 04:59 21:26
14.07.2022 05:01 21:25
15.07.2022 05:02 21:24
16.07.2022 05:03 21:23
17.07.2022 05:04 21:22
18.07.2022 05:06 21:20
19.07.2022 05:07 21:19
20.07.2022 05:08 21:18